M I D A S
Marine Information and Data Acquisition System
Tripno 661 of the Zeeleeuw from 2004-03-04 07:28:48 to 2004-03-04 15:23:20
Back to CruiseResearch ActivitiesStationsMapUnderway DataData graphs

EquipmentUnitsComment
TimeDGPSUTC
LatitudeDGPSDM.mWGS84
LongitudeDGPSDM.mWGS84
HeadingGyrodeg 
SOGDGPSknotsSpeed over ground
COGDGPSdegCourse over ground
DepthEcho soundermeters200 kHz
Missing or incorrect values are displayed as -999
Navigation data collected by the RV Zeeleeuw from 2004-03-04 07:28:48 to 2004-03-04 15:23:20
                                                                                    Next 1000 lines
Time Latitude Longitude Heading SOG COG Depth
2004-03-04 07:28:57 51°13.611 2°56.038 116.6 4.1 294 -999
2004-03-04 07:29:02 51°13.614 2°56.029 116.8 4.2 294 -999
2004-03-04 07:29:07 51°13.616 2°56.02 117.1 4.3 294 -999
2004-03-04 07:29:12 51°13.619 2°56.011 117.4 4.4 294 -999
2004-03-04 07:29:18 51°13.622 2°56 117.9 4.6 294 -999
2004-03-04 07:29:22 51°13.624 2°55.993 118.3 4.7 295 -999
2004-03-04 07:29:27 51°13.627 2°55.983 118.7 4.8 295 -999
2004-03-04 07:29:32 51°13.63 2°55.973 118.7 4.9 296 -999
2004-03-04 07:29:37 51°13.633 2°55.963 118.5 4.9 295 -999
2004-03-04 07:29:42 51°13.636 2°55.953 117.8 5 296 -999
2004-03-04 07:29:47 51°13.639 2°55.943 116.8 5.1 295 -999
2004-03-04 07:29:52 51°13.642 2°55.933 116.1 5.1 294 -999
2004-03-04 07:29:56 51°13.644 2°55.925 115.4 5.2 293 -999
2004-03-04 07:30:02 51°13.647 2°55.912 114.8 5.3 293 -999
2004-03-04 07:30:07 51°13.65 2°55.901 113.9 5.3 292 -999
2004-03-04 07:30:12 51°13.653 2°55.89 113.2 5.3 292 -999
2004-03-04 07:30:16 51°13.655 2°55.881 111.9 5.3 291 -999
2004-03-04 07:30:22 51°13.658 2°55.868 110.6 5.3 290 -999
2004-03-04 07:30:27 51°13.66 2°55.857 109.2 5.3 288 -999
2004-03-04 07:30:32 51°13.662 2°55.846 107.8 5.3 287 -999
2004-03-04 07:30:37 51°13.664 2°55.835 106.3 5.3 285 -999
2004-03-04 07:30:42 51°13.665 2°55.823 104.7 5.3 284 -999
2004-03-04 07:30:47 51°13.667 2°55.812 102.7 5.1 283 -999
2004-03-04 07:30:52 51°13.668 2°55.802 101.3 4.9 282 -999
2004-03-04 07:30:58 51°13.669 2°55.791 100.1 4.6 281 -999
2004-03-04 07:31:02 51°13.67 2°55.785 98.5 3.7 279 -999
2004-03-04 07:31:07 51°13.67 2°55.778 96.9 3.2 277 9.9
2004-03-04 07:31:11 51°13.671 2°55.773 94.7 2.9 280 10.2
2004-03-04 07:31:16 51°13.671 2°55.769 92.2 2.3 277 10.5
2004-03-04 07:31:22 51°13.671 2°55.767 88.7 1.1 289 10.4
2004-03-04 07:31:26 51°13.672 2°55.767 82.9 0.4 331 10.5
2004-03-04 07:31:30 51°13.673 2°55.767 77.6 0.6 18 10.6
2004-03-04 07:31:36 51°13.674 2°55.769 69.1 1.1 43 10.8
2004-03-04 07:31:40 51°13.676 2°55.771 63.1 1.3 41 11.1
2004-03-04 07:31:46 51°13.679 2°55.774 53.4 2.3 37 11.6
2004-03-04 07:31:51 51°13.682 2°55.777 46.4 2.6 30 12.5
2004-03-04 07:31:56 51°13.686 2°55.779 35.7 3.1 21 12.9
2004-03-04 07:32:02 51°13.692 2°55.781 26.9 3.4 15 13
2004-03-04 07:32:06 51°13.696 2°55.782 19.9 3.8 5 12.9
2004-03-04 07:32:11 51°13.702 2°55.781 9.3 4 358 12.7
2004-03-04 07:32:16 51°13.708 2°55.779 2.1 4.3 347 12.4
2004-03-04 07:32:22 51°13.715 2°55.774 352.8 4.5 344 12.1
2004-03-04 07:32:26 51°13.719 2°55.77 343.6 4.9 331 11.9
2004-03-04 07:32:31 51°13.725 2°55.764 334.3 4.9 325 11
2004-03-04 07:32:36 51°13.73 2°55.758 326.7 4.7 322 10.5
2004-03-04 07:32:42 51°13.735 2°55.749 324.3 4.7 322 10.2
2004-03-04 07:32:46 51°13.74 2°55.743 322.2 5 318 9.1
2004-03-04 07:32:51 51°13.745 2°55.735 320.9 5.4 317 9.1
2004-03-04 07:32:56 51°13.751 2°55.726 320.7 5.7 317 9
2004-03-04 07:33:02 51°13.759 2°55.715 320.7 6.1 317 8.9
2004-03-04 07:33:06 51°13.764 2°55.707 320.7 6.4 317 8.9
2004-03-04 07:33:11 51°13.771 2°55.697 320.8 6.6 317 9.2
2004-03-04 07:33:16 51°13.778 2°55.687 321.4 6.9 318 9.1
2004-03-04 07:33:22 51°13.787 2°55.674 321.8 7 318 9.3
2004-03-04 07:33:26 51°13.794 2°55.666 322.4 7.3 319 9.4
2004-03-04 07:33:30 51°13.8 2°55.658 323.9 7.4 321 9.9
2004-03-04 07:33:36 51°13.811 2°55.646 325.8 7.6 324 9.8
2004-03-04 07:33:40 51°13.818 2°55.639 328.7 7.7 326 9.8
2004-03-04 07:33:47 51°13.831 2°55.627 332.1 7.8 331 9.9
2004-03-04 07:33:52 51°13.841 2°55.619 335.7 7.9 334 9.7
2004-03-04 07:33:56 51°13.849 2°55.613 338 7.9 334 9.7
2004-03-04 07:34:00 51°13.857 2°55.607 338.9 8 334 9.7
2004-03-04 07:34:06 51°13.869 2°55.598 339.3 8.1 335 9.7
2004-03-04 07:34:11 51°13.88 2°55.59 339.6 8.2 335 9.4
2004-03-04 07:34:16 51°13.89 2°55.582 340.3 8.3 336 9.4
2004-03-04 07:34:22 51°13.903 2°55.573 340.3 8.3 336 9.6
2004-03-04 07:34:26 51°13.912 2°55.567 340.1 8.4 336 9.5
2004-03-04 07:34:30 51°13.92 2°55.561 340.1 8.4 336 9.6
2004-03-04 07:34:36 51°13.933 2°55.552 340.4 8.5 336 9.7
2004-03-04 07:34:42 51°13.946 2°55.542 340.4 8.5 335 10
2004-03-04 07:34:46 51°13.954 2°55.536 340.3 8.5 336 9.9
2004-03-04 07:34:52 51°13.967 2°55.527 340.6 8.5 336 10.4
2004-03-04 07:34:56 51°13.976 2°55.521 340.8 8.6 336 10.7
2004-03-04 07:35:02 51°13.989 2°55.513 340.6 8.6 336 10.5
2004-03-04 07:35:06 51°13.998 2°55.506 340.5 8.6 337 10.5
2004-03-04 07:35:10 51°14.007 2°55.5 340.7 8.6 336 10.2
2004-03-04 07:35:16 51°14.02 2°55.491 340.4 8.6 336 10.4
2004-03-04 07:35:22 51°14.032 2°55.481 340 8.6 336 10.5
2004-03-04 07:35:26 51°14.041 2°55.475 340 8.6 336 11.6
2004-03-04 07:35:32 51°14.054 2°55.465 340.1 8.6 335 10.9
2004-03-04 07:35:36 51°14.062 2°55.458 339.7 8.6 335 11.3
2004-03-04 07:35:40 51°14.071 2°55.452 339.7 8.6 335 11.2
2004-03-04 07:35:47 51°14.086 2°55.441 340.1 8.6 335 -999
2004-03-04 07:35:52 51°14.097 2°55.433 340 8.6 335 -999
2004-03-04 07:35:56 51°14.106 2°55.427 339.7 8.6 335 11.2
2004-03-04 07:36:02 51°14.118 2°55.417 339.7 8.6 335 11.3
2004-03-04 07:36:07 51°14.129 2°55.409 339.6 8.6 335 -999
2004-03-04 07:36:12 51°14.14 2°55.4 338.9 8.6 334 11.1
2004-03-04 07:36:16 51°14.148 2°55.393 337.5 8.6 332 11.1
2004-03-04 07:36:22 51°14.161 2°55.382 336.4 8.6 331 11.7
2004-03-04 07:36:27 51°14.171 2°55.372 334.5 8.5 329 11.2
2004-03-04 07:36:32 51°14.18 2°55.362 332.6 8.5 327 11.6
2004-03-04 07:36:36 51°14.188 2°55.353 330.7 8.5 326 11.4
2004-03-04 07:36:42 51°14.199 2°55.34 328.7 8.5 323 -999
2004-03-04 07:36:47 51°14.208 2°55.328 326.7 8.5 322 -999
2004-03-04 07:36:52 51°14.217 2°55.316 325.4 8.5 321 12
2004-03-04 07:36:56 51°14.224 2°55.306 324.6 8.5 319 -999
2004-03-04 07:37:02 51°14.235 2°55.29 323.7 8.5 319 -999
2004-03-04 07:37:07 51°14.244 2°55.276 322.4 9.3 317 -999
2004-03-04 07:37:12 51°14.254 2°55.261 321.4 9.8 316 -999
2004-03-04 07:37:16 51°14.262 2°55.248 320.3 10.2 315 11.8
2004-03-04 07:37:22 51°14.275 2°55.227 319.5 10.6 315 11.4
2004-03-04 07:37:26 51°14.284 2°55.213 318.5 11.1 313 11.7
2004-03-04 07:37:31 51°14.295 2°55.195 318.3 11.3 314 11
2004-03-04 07:37:36 51°14.307 2°55.176 318.8 11.6 314 -999
2004-03-04 07:37:42 51°14.32 2°55.154 319.6 11.6 315 -999
2004-03-04 07:37:46 51°14.329 2°55.139 318.8 11.9 312 11.5
2004-03-04 07:37:52 51°14.342 2°55.115 316.8 12 311 -999
2004-03-04 07:37:56 51°14.351 2°55.098 315.5 12 310 11
2004-03-04 07:38:02 51°14.364 2°55.073 314.8 12.1 310 10.5
2004-03-04 07:38:07 51°14.374 2°55.052 314.4 12.1 309 10.8
2004-03-04 07:38:11 51°14.383 2°55.035 313.5 12.2 308 10.8
2004-03-04 07:38:16 51°14.393 2°55.014 313.3 12.2 308 10.7
2004-03-04 07:38:22 51°14.406 2°54.988 313.1 12.3 308 10.5
2004-03-04 07:38:26 51°14.414 2°54.971 313 12.4 307 10.7
2004-03-04 07:38:31 51°14.424 2°54.948 312.2 12.4 305 10.5
2004-03-04 07:38:36 51°14.433 2°54.925 310.7 12.4 302 10.5
2004-03-04 07:38:40 51°14.44 2°54.906 307.6 12.5 301 10.4
2004-03-04 07:38:46 51°14.449 2°54.876 303.8 12.5 296 10.5
2004-03-04 07:38:51 51°14.455 2°54.851 300.4 12.5 293 10.5
2004-03-04 07:38:56 51°14.462 2°54.825 298.1 12.5 292 10.5
2004-03-04 07:39:00 51°14.466 2°54.804 296.8 12.6 291 10.5
2004-03-04 07:39:06 51°14.474 2°54.773 296.2 12.6 290 10.6
2004-03-04 07:39:11 51°14.478 2°54.746 294.5 12.6 286 10.4
2004-03-04 07:39:16 51°14.482 2°54.719 291 12.6 283 10.5
2004-03-04 07:39:22 51°14.484 2°54.686 286.7 12.6 279 10.5
2004-03-04 07:39:26 51°14.486 2°54.664 282.8 12.6 275 10.5
2004-03-04 07:39:31 51°14.486 2°54.636 279.6 12.6 273 10.4
2004-03-04 07:39:36 51°14.486 2°54.608 276.7 12.6 270 10.5
2004-03-04 07:39:42 51°14.485 2°54.575 274.3 12.6 269 10.4
2004-03-04 07:39:46 51°14.484 2°54.552 272.5 12.6 267 10.4
2004-03-04 07:39:51 51°14.483 2°54.525 271.5 12.6 266 10.4
2004-03-04 07:39:56 51°14.481 2°54.497 269.8 12.5 262 10.4
2004-03-04 07:40:02 51°14.476 2°54.466 266.1 12.2 259 10.4
2004-03-04 07:40:06 51°14.473 2°54.447 261.7 11.2 255 10.4
2004-03-04 07:40:11 51°14.468 2°54.425 257.9 10.6 252 10.5
2004-03-04 07:40:16 51°14.463 2°54.406 253.9 9.6 247 10.5
2004-03-04 07:40:21 51°14.458 2°54.388 250.3 9.1 247 10.5
2004-03-04 07:40:26 51°14.453 2°54.371 248.7 8.4 247 10.6
2004-03-04 07:40:30 51°14.45 2°54.357 249.5 8.2 248 10.6
2004-03-04 07:40:36 51°14.446 2°54.338 252.5 7.6 251 10.4
2004-03-04 07:40:40 51°14.444 2°54.326 256.1 7.2 253 10.2
2004-03-04 07:40:47 51°14.441 2°54.306 259.2 6.7 256 10
2004-03-04 07:40:52 51°14.439 2°54.293 261.2 6.4 258 9.9
2004-03-04 07:40:56 51°14.438 2°54.283 262 5.9 258 9.8
2004-03-04 07:41:02 51°14.437 2°54.269 262.1 5.6 259 9.8
2004-03-04 07:41:06 51°14.436 2°54.26 263.3 4.9 262 9.8
2004-03-04 07:41:11 51°14.436 2°54.251 267 4.5 266 9.8
2004-03-04 07:41:16 51°14.435 2°54.241 272.3 4.1 270 9.8
2004-03-04 07:41:22 51°14.436 2°54.231 277.4 4 273 9.8
2004-03-04 07:41:26 51°14.436 2°54.224 281.6 3.8 275 9.8
2004-03-04 07:41:31 51°14.437 2°54.216 283.9 3.7 276 9.8
2004-03-04 07:41:36 51°14.437 2°54.208 285.5 3.6 276 9.8
2004-03-04 07:41:42 51°14.438 2°54.199 286.5 3.5 278 9.8
2004-03-04 07:41:46 51°14.438 2°54.193 287 3.4 280 9.9
2004-03-04 07:41:52 51°14.439 2°54.185 287.3 3.3 279 9.8
2004-03-04 07:41:56 51°14.439 2°54.179 287.3 3.2 279 9.8
2004-03-04 07:42:02 51°14.44 2°54.171 287.2 3.1 279 9.8
2004-03-04 07:42:06 51°14.441 2°54.165 286.6 3 281 9.8
2004-03-04 07:42:11 51°14.442 2°54.159 286 3 277 9.9
2004-03-04 07:42:16 51°14.442 2°54.153 285.3 2.9 278 9.9
2004-03-04 07:42:22 51°14.443 2°54.145 284.6 2.9 276 9.8
2004-03-04 07:42:26 51°14.443 2°54.14 283.7 2.8 278 9.9
2004-03-04 07:42:32 51°14.443 2°54.133 283 2.7 275 9.9
2004-03-04 07:42:36 51°14.444 2°54.128 281.9 2.7 275 9.9
2004-03-04 07:42:42 51°14.444 2°54.121 281.1 2.6 275 9.9
2004-03-04 07:42:46 51°14.444 2°54.117 280.5 2.6 275 9.9
2004-03-04 07:42:51 51°14.444 2°54.111 279.6 2.5 272 9.9
2004-03-04 07:42:56 51°14.444 2°54.106 278.6 2.5 271 10
2004-03-04 07:43:02 51°14.444 2°54.099 277.9 2.5 273 9.9
2004-03-04 07:43:06 51°14.444 2°54.095 277.1 2.4 272 9.9
2004-03-04 07:43:11 51°14.444 2°54.09 276.3 2.3 270 9.9
2004-03-04 07:43:16 51°14.444 2°54.085 275.5 2.3 271 10
2004-03-04 07:43:20 51°14.444 2°54.081 274.7 2.3 269 10
2004-03-04 07:43:26 51°14.444 2°54.075 274.1 2.2 270 10
2004-03-04 07:43:31 51°14.444 2°54.071 273.3 2.2 268 9.9
2004-03-04 07:43:36 51°14.444 2°54.066 272.5 2.1 266 10
2004-03-04 07:43:42 51°14.443 2°54.06 272 2.1 266 10
2004-03-04 07:43:47 51°14.443 2°54.056 271.4 2.1 267 10
2004-03-04 07:43:51 51°14.443 2°54.052 270.7 2 265 9.9
2004-03-04 07:43:56 51°14.443 2°54.048 270.1 2 266 9.9
2004-03-04 07:44:02 51°14.442 2°54.042 269.5 2 264 10
2004-03-04 07:44:06 51°14.442 2°54.039 268.9 1.9 263 10
2004-03-04 07:44:11 51°14.442 2°54.035 268.2 1.9 265 10
2004-03-04 07:44:16 51°14.442 2°54.031 267.7 1.9 264 10.1
2004-03-04 07:44:22 51°14.441 2°54.026 267.1 1.9 263 10
2004-03-04 07:44:27 51°14.441 2°54.021 266.5 1.8 262 10
2004-03-04 07:44:31 51°14.441 2°54.018 266.2 1.8 261 10
2004-03-04 07:44:36 51°14.44 2°54.014 265.6 1.8 261 10
2004-03-04 07:44:42 51°14.44 2°54.01 265.1 1.8 260 10.1
2004-03-04 07:44:46 51°14.44 2°54.007 264.4 1.7 260 10.1
2004-03-04 07:44:52 51°14.439 2°54.002 264.1 1.7 261 10.2
2004-03-04 07:44:56 51°14.439 2°53.999 263.4 1.7 259 10
2004-03-04 07:45:00 51°14.439 2°53.996 263.2 1.7 257 10.1
2004-03-04 07:45:06 51°14.438 2°53.992 262.7 1.8 256 10.2
2004-03-04 07:45:11 51°14.438 2°53.987 262 2.1 258 10.1
2004-03-04 07:45:16 51°14.436 2°53.981 260.6 2.6 256 10.1
2004-03-04 07:45:22 51°14.434 2°53.972 257.1 3.4 251 10.1
2004-03-04 07:45:27 51°14.432 2°53.964 253 4.2 245 10.2
2004-03-04 07:45:31 51°14.429 2°53.956 247.1 4.7 241 10
2004-03-04 07:45:36 51°14.425 2°53.945 244.2 5.7 240 10
2004-03-04 07:45:42 51°14.419 2°53.93 241.8 6 238 10.1
2004-03-04 07:45:46 51°14.415 2°53.919 240.3 7.3 237 10
2004-03-04 07:45:51 51°14.408 2°53.904 239.4 8.2 236 10
2004-03-04 07:45:56 51°14.401 2°53.886 239.1 9.1 237 9.9
2004-03-04 07:46:00 51°14.394 2°53.871 238.7 10.3 235 9.9
2004-03-04 07:46:07 51°14.382 2°53.843 238.6 11.3 235 9.9
2004-03-04 07:46:11 51°14.374 2°53.825 238.2 11.8 235 9.8
2004-03-04 07:46:16 51°14.364 2°53.802 238.2 12.3 236 9.9
2004-03-04 07:46:22 51°14.352 2°53.774 238.5 12.6 235 9.8
2004-03-04 07:46:26 51°14.345 2°53.754 240.2 13.1 238 9.8
2004-03-04 07:46:30 51°14.337 2°53.735 240.9 13.1 237 9.7
2004-03-04 07:46:36 51°14.324 2°53.705 240.6 13.5 237 9.8
2004-03-04 07:46:40 51°14.316 2°53.685 240.3 13.6 236 9.8
2004-03-04 07:46:46 51°14.304 2°53.655 240.2 13.7 237 9.7
2004-03-04 07:46:51 51°14.293 2°53.629 240.3 13.8 237 9.8
2004-03-04 07:46:56 51°14.283 2°53.603 240.7 13.9 237 9.7
2004-03-04 07:47:02 51°14.271 2°53.571 241.2 13.9 239 9.7
2004-03-04 07:47:06 51°14.262 2°53.55 241.9 14 238 9.7
2004-03-04 07:47:12 51°14.25 2°53.519 242.3 14 239 9.7
2004-03-04 07:47:16 51°14.242 2°53.498 242.1 14 237 9.7
2004-03-04 07:47:20 51°14.234 2°53.476 241.6 14.1 238 9.7
2004-03-04 07:47:26 51°14.22 2°53.445 241 14.1 237 9.7
2004-03-04 07:47:31 51°14.21 2°53.419 240.6 14.1 239 9.8
2004-03-04 07:47:36 51°14.2 2°53.392 242.4 14.1 239 9.8
2004-03-04 07:47:40 51°14.192 2°53.37 242.2 14.2 238 9.8
2004-03-04 07:47:47 51°14.177 2°53.334 242.2 14.2 237 9.7
2004-03-04 07:47:52 51°14.166 2°53.307 241.3 14.2 237 9.8
2004-03-04 07:47:56 51°14.157 2°53.286 241 14.2 237 9.9
2004-03-04 07:48:01 51°14.146 2°53.26 240.4 14.2 237 10
2004-03-04 07:48:06 51°14.135 2°53.234 240.4 14.3 236 9.9
2004-03-04 07:48:10 51°14.127 2°53.212 239.8 14.3 237 10
2004-03-04 07:48:16 51°14.114 2°53.181 240.2 14.3 237 10
2004-03-04 07:48:22 51°14.101 2°53.149 240.2 14.2 236 10
2004-03-04 07:48:26 51°14.092 2°53.128 240.4 14.3 237 10.1
2004-03-04 07:48:31 51°14.082 2°53.102 240.8 14.3 237 10.1
2004-03-04 07:48:36 51°14.071 2°53.075 240.8 14.3 237 10.2
2004-03-04 07:48:40 51°14.062 2°53.054 240.8 14.3 237 10.2
2004-03-04 07:48:47 51°14.047 2°53.016 240.8 14.3 238 10.2
2004-03-04 07:48:51 51°14.038 2°52.995 241.1 14.3 237 10.3
2004-03-04 07:48:56 51°14.027 2°52.969 240.8 14.3 237 10.3
2004-03-04 07:49:02 51°14.014 2°52.937 240.8 14.4 237 10.3
2004-03-04 07:49:06 51°14.006 2°52.916 240.9 14.3 237 10.3
2004-03-04 07:49:10 51°13.997 2°52.894 240.9 14.3 237 10.3
2004-03-04 07:49:16 51°13.984 2°52.862 240.9 14.4 237 10.3
2004-03-04 07:49:20 51°13.976 2°52.841 241.1 14.4 238 10.4
2004-03-04 07:49:27 51°13.961 2°52.803 241.2 14.3 237 10.4
2004-03-04 07:49:32 51°13.95 2°52.777 241.1 14.3 238 10.5
2004-03-04 07:49:36 51°13.941 2°52.755 241.6 14.3 237 10.4
2004-03-04 07:49:42 51°13.929 2°52.723 241.3 14.4 238 10.5
2004-03-04 07:49:46 51°13.92 2°52.702 241.5 14.3 237 10.4
2004-03-04 07:49:51 51°13.91 2°52.675 241.1 14.3 238 10.5
2004-03-04 07:49:56 51°13.899 2°52.649 241.2 14.4 237 10.5
2004-03-04 07:50:02 51°13.886 2°52.617 241.3 14.3 238 10.5
2004-03-04 07:50:06 51°13.878 2°52.595 241.6 14.3 238 10.5
2004-03-04 07:50:11 51°13.867 2°52.568 241.6 14.4 238 10.5
2004-03-04 07:50:16 51°13.857 2°52.541 242 14.3 238 10.5
2004-03-04 07:50:20 51°13.849 2°52.52 242.3 14.3 239 10.4
2004-03-04 07:50:26 51°13.836 2°52.487 242.3 14.4 238 10.4
2004-03-04 07:50:30 51°13.828 2°52.466 242.3 14.4 238 10.5
2004-03-04 07:50:36 51°13.815 2°52.433 242.3 14.3 238 10.5
2004-03-04 07:50:42 51°13.803 2°52.401 242.3 14.3 238 10.6
2004-03-04 07:50:46 51°13.794 2°52.38 241.8 14.4 238 10.6
2004-03-04 07:50:51 51°13.784 2°52.353 241.6 14.4 238 10.5
2004-03-04 07:50:56 51°13.773 2°52.326 241.7 14.4 238 10.6
2004-03-04 07:51:02 51°13.76 2°52.294 241.6 14.3 238 10.6
2004-03-04 07:51:06 51°13.752 2°52.272 241.6 14.4 237 10.6
2004-03-04 07:51:12 51°13.739 2°52.24 241.4 14.4 238 10.6
2004-03-04 07:51:16 51°13.73 2°52.218 241.5 14.4 238 10.7
2004-03-04 07:51:22 51°13.718 2°52.186 241.8 14.4 239 10.7
2004-03-04 07:51:26 51°13.709 2°52.164 241.9 14.4 238 10.7
2004-03-04 07:51:30 51°13.701 2°52.143 242 14.4 238 10.7
2004-03-04 07:51:36 51°13.688 2°52.11 242.2 14.4 238 10.7
2004-03-04 07:51:42 51°13.675 2°52.078 241.9 14.4 238 10.7
2004-03-04 07:51:46 51°13.667 2°52.056 242 14.4 239 10.7
2004-03-04 07:51:52 51°13.655 2°52.024 242.1 14.4 238 10.7
2004-03-04 07:51:56 51°13.646 2°52.002 241.9 14.4 238 10.8
2004-03-04 07:52:00 51°13.637 2°51.981 241.7 14.4 238 10.7
2004-03-04 07:52:06 51°13.625 2°51.948 241.8 14.4 238 10.7
2004-03-04 07:52:11 51°13.614 2°51.921 241.8 14.4 237 10.8
2004-03-04 07:52:16 51°13.603 2°51.894 241.6 14.4 238 10.7
2004-03-04 07:52:22 51°13.59 2°51.862 241.6 14.4 237 10.7
2004-03-04 07:52:26 51°13.582 2°51.84 241.8 14.4 238 10.7
2004-03-04 07:52:31 51°13.571 2°51.813 242 14.4 238 10.8
2004-03-04 07:52:36 51°13.561 2°51.786 241.9 14.5 238 10.8
2004-03-04 07:52:42 51°13.548 2°51.754 242.2 14.4 239 10.8
2004-03-04 07:52:46 51°13.54 2°51.732 242.4 14.4 238 10.8
2004-03-04 07:52:51 51°13.53 2°51.705 242.4 14.5 239 10.8
2004-03-04 07:52:56 51°13.519 2°51.678 242.8 14.4 239 10.8
2004-03-04 07:53:02 51°13.507 2°51.645 242.6 14.4 239 10.8
2004-03-04 07:53:07 51°13.496 2°51.618 242.3 14.4 238 10.8
2004-03-04 07:53:11 51°13.488 2°51.596 242.2 14.4 238 11
2004-03-04 07:53:16 51°13.477 2°51.569 242.2 14.4 238 10.9
2004-03-04 07:53:22 51°13.465 2°51.536 242.2 14.4 238 11
2004-03-04 07:53:26 51°13.456 2°51.515 242.3 14.4 238 11
2004-03-04 07:53:32 51°13.444 2°51.482 242.3 14.4 239 11
2004-03-04 07:53:36 51°13.435 2°51.46 242.4 14.4 238 11
2004-03-04 07:53:41 51°13.425 2°51.433 242.1 14.4 238 11
2004-03-04 07:53:46 51°13.414 2°51.406 242 14.4 238 11
2004-03-04 07:53:50 51°13.406 2°51.385 242 14.4 238 11.1
2004-03-04 07:53:56 51°13.393 2°51.353 241.9 14.4 238 11
2004-03-04 07:54:02 51°13.381 2°51.32 241.8 14.4 239 11
2004-03-04 07:54:07 51°13.37 2°51.293 242.3 14.3 238 11
2004-03-04 07:54:11 51°13.362 2°51.271 242.2 14.4 239 11
2004-03-04 07:54:16 51°13.351 2°51.244 242.2 14.4 238 11
2004-03-04 07:54:22 51°13.339 2°51.212 242.4 14.4 239 11
2004-03-04 07:54:26 51°13.33 2°51.19 242.2 14.4 238 11
2004-03-04 07:54:31 51°13.32 2°51.163 242 14.4 239 11
2004-03-04 07:54:36 51°13.309 2°51.136 242.3 14.4 238 11.2
2004-03-04 07:54:40 51°13.301 2°51.114 242.2 14.4 238 11.1
2004-03-04 07:54:47 51°13.286 2°51.076 241.9 14.4 238 11.1
2004-03-04 07:54:52 51°13.275 2°51.049 241.9 14.4 238 11.1
2004-03-04 07:54:56 51°13.267 2°51.027 242.1 14.4 238 11.1
2004-03-04 07:55:02 51°13.254 2°50.995 242.5 14.4 239 11.1
2004-03-04 07:55:06 51°13.246 2°50.973 242.3 14.4 239 11
2004-03-04 07:55:10 51°13.238 2°50.952 242.2 14.4 238 11.1
2004-03-04 07:55:16 51°13.225 2°50.92 242 14.4 238 11.2
2004-03-04 07:55:22 51°13.212 2°50.887 241.9 14.4 238 11.2
2004-03-04 07:55:26 51°13.204 2°50.865 241.9 14.4 238 11.2
2004-03-04 07:55:31 51°13.193 2°50.839 242.1 14.4 238 11.1
2004-03-04 07:55:36 51°13.183 2°50.811 242 14.4 239 11.2
2004-03-04 07:55:42 51°13.17 2°50.779 242.5 14.4 239 11.2
2004-03-04 07:55:46 51°13.162 2°50.757 242.6 14.4 239 11.2
2004-03-04 07:55:51 51°13.151 2°50.73 243 14.3 239 11.2
2004-03-04 07:55:56 51°13.141 2°50.703 242.4 14.4 238 11.2
2004-03-04 07:56:02 51°13.128 2°50.67 242.2 14.4 239 11.2
2004-03-04 07:56:06 51°13.119 2°50.649 242.4 14.4 238 11.2
2004-03-04 07:56:11 51°13.109 2°50.622 242.2 14.4 238 11.2
2004-03-04 07:56:16 51°13.098 2°50.595 242.4 14.4 238 11.2
2004-03-04 07:56:22 51°13.086 2°50.562 242.4 14.4 238 11.2
2004-03-04 07:56:27 51°13.075 2°50.535 242.4 14.4 239 11.2
2004-03-04 07:56:31 51°13.067 2°50.513 242.6 14.4 238 11.2
2004-03-04 07:56:36 51°13.056 2°50.486 242.3 14.4 238 11.4
2004-03-04 07:56:40 51°13.048 2°50.464 242.3 14.5 238 11.3
2004-03-04 07:56:47 51°13.033 2°50.426 242.3 14.4 239 11.3
2004-03-04 07:56:51 51°13.025 2°50.404 242.4 14.4 239 11.3
2004-03-04 07:56:56 51°13.015 2°50.377 242.4 14.4 238 11.3
2004-03-04 07:57:02 51°13.002 2°50.345 242.4 14.5 239 11.3
2004-03-04 07:57:06 51°12.994 2°50.323 242.5 14.5 239 11.3
2004-03-04 07:57:11 51°12.983 2°50.295 242.7 14.4 239 11.4
2004-03-04 07:57:16 51°12.973 2°50.268 242.6 14.5 238 11.3
2004-03-04 07:57:22 51°12.96 2°50.236 242.4 14.5 239 11.4
2004-03-04 07:57:26 51°12.952 2°50.214 242.4 14.5 238 11.3
2004-03-04 07:57:31 51°12.941 2°50.187 242 14.4 239 11.4
2004-03-04 07:57:36 51°12.931 2°50.16 242 14.5 238 11.4
2004-03-04 07:57:42 51°12.918 2°50.127 241.9 14.5 238 11.4
2004-03-04 07:57:46 51°12.91 2°50.105 242.3 14.5 238 11.4
2004-03-04 07:57:50 51°12.902 2°50.083 242.4 14.5 239 11.4
2004-03-04 07:57:56 51°12.889 2°50.051 242.6 14.4 239 11.5
2004-03-04 07:58:00 51°12.881 2°50.029 242.6 14.5 238 11.5
2004-03-04 07:58:07 51°12.866 2°49.991 242.4 14.4 238 11.5
2004-03-04 07:58:12 51°12.856 2°49.964 242.3 14.4 238 11.4
2004-03-04 07:58:16 51°12.847 2°49.942 241.8 14.5 238 11.5
2004-03-04 07:58:20 51°12.839 2°49.921 241.9 14.5 239 11.4
2004-03-04 07:58:26 51°12.826 2°49.888 242.3 14.4 239 11.5
2004-03-04 07:58:30 51°12.818 2°49.866 242.4 14.4 239 11.5
2004-03-04 07:58:36 51°12.806 2°49.834 242.6 14.4 239 11.5
2004-03-04 07:58:42 51°12.793 2°49.801 242.4 14.4 238 11.5
2004-03-04 07:58:47 51°12.783 2°49.774 242.2 14.4 238 11.5
2004-03-04 07:58:52 51°12.772 2°49.747 242.4 14.4 238 11.5
2004-03-04 07:58:56 51°12.764 2°49.725 242.4 14.4 239 11.6
2004-03-04 07:59:00 51°12.755 2°49.703 242.4 14.4 239 11.6
2004-03-04 07:59:06 51°12.743 2°49.671 242.4 14.4 239 11.5
2004-03-04 07:59:10 51°12.735 2°49.649 242.6 14.4 239 11.6
2004-03-04 07:59:16 51°12.722 2°49.616 242.7 14.4 239 11.6
2004-03-04 07:59:22 51°12.71 2°49.584 242.7 14.4 239 11.6
2004-03-04 07:59:26 51°12.702 2°49.562 242.8 14.4 239 11.6
2004-03-04 07:59:30 51°12.693 2°49.54 242.8 14.4 238 11.6
2004-03-04 07:59:36 51°12.681 2°49.508 242.4 14.4 238 11.6
2004-03-04 07:59:42 51°12.668 2°49.475 242.1 14.4 238 11.6
2004-03-04 07:59:46 51°12.66 2°49.454 242.1 14.3 238 11.6
2004-03-04 07:59:51 51°12.649 2°49.427 242.1 14.3 238 11.6
2004-03-04 07:59:56 51°12.639 2°49.4 242 14.4 238 11.6
2004-03-04 08:00:02 51°12.626 2°49.368 242.3 14.3 238 11.6
2004-03-04 08:00:06 51°12.618 2°49.346 242.3 14.3 239 11.6
2004-03-04 08:00:11 51°12.607 2°49.319 242.4 14.3 238 11.7
2004-03-04 08:00:16 51°12.597 2°49.292 242.6 14.3 239 11.6
2004-03-04 08:00:20 51°12.589 2°49.27 242.7 14.3 238 11.7
2004-03-04 08:00:26 51°12.576 2°49.238 242.6 14.3 238 11.6
2004-03-04 08:00:32 51°12.564 2°49.206 242.2 14.3 238 11.7
2004-03-04 08:00:36 51°12.556 2°49.184 242.2 14.3 239 11.6
2004-03-04 08:00:42 51°12.543 2°49.152 242.3 14.3 238 11.7
2004-03-04 08:00:46 51°12.535 2°49.131 242.3 14.3 238 11.6
2004-03-04 08:00:51 51°12.525 2°49.104 242.4 14.3 239 11.6
2004-03-04 08:00:56 51°12.515 2°49.077 242.7 14.2 238 11.6
2004-03-04 08:01:02 51°12.502 2°49.045 242.5 14.2 239 11.6
2004-03-04 08:01:07 51°12.492 2°49.018 242.4 14.3 238 11.6
2004-03-04 08:01:10 51°12.486 2°49.002 242.3 14.3 238 11.6
2004-03-04 08:01:16 51°12.473 2°48.97 242.1 14.2 238 11.6
2004-03-04 08:01:22 51°12.46 2°48.938 242 14.2 238 11.6
2004-03-04 08:01:26 51°12.452 2°48.917 242 14.3 238 11.6
2004-03-04 08:01:31 51°12.442 2°48.89 242.1 14.2 239 11.6
2004-03-04 08:01:36 51°12.432 2°48.863 242.4 14.2 238 11.5
2004-03-04 08:01:42 51°12.419 2°48.831 242.4 14.2 239 11.5
2004-03-04 08:01:46 51°12.411 2°48.809 242.8 14.2 239 11.6
2004-03-04 08:01:50 51°12.403 2°48.788 242.8 14.2 239 11.6
2004-03-04 08:01:56 51°12.391 2°48.755 242.4 14.2 239 11.5
2004-03-04 08:02:02 51°12.378 2°48.723 242.4 14.2 239 11.6
2004-03-04 08:02:06 51°12.37 2°48.702 242.4 14.2 238 11.6
2004-03-04 08:02:11 51°12.36 2°48.675 242.2 14.3 238 11.6
2004-03-04 08:02:16 51°12.349 2°48.648 241.9 14.2 238 11.6
2004-03-04 08:02:20 51°12.341 2°48.627 241.6 14.2 238 11.6
2004-03-04 08:02:26 51°12.328 2°48.595 241.6 14.3 238 11.6
2004-03-04 08:02:31 51°12.318 2°48.568 241.6 14.3 238 11.6
2004-03-04 08:02:36 51°12.307 2°48.542 242.2 14.2 238 11.6
2004-03-04 08:02:41 51°12.297 2°48.515 242.1 14.2 238 11.6
2004-03-04 08:02:46 51°12.286 2°48.488 241.8 14.3 238 11.6
2004-03-04 08:02:52 51°12.274 2°48.456 242.1 14.2 238 11.6
2004-03-04 08:02:56 51°12.266 2°48.435 242.2 14.2 239 11.6
2004-03-04 08:03:02 51°12.253 2°48.403 242.2 14.2 238 11.6
2004-03-04 08:03:06 51°12.245 2°48.381 242.3 14.2 239 11.6
2004-03-04 08:03:11 51°12.235 2°48.354 242.4 14.2 238 11.6
2004-03-04 08:03:14 51°12.228 2°48.339 242.3 14.2 238 11.6
2004-03-04 08:03:22 51°12.212 2°48.296 242.1 14.2 238 11.6
2004-03-04 08:03:26 51°12.203 2°48.274 242.1 14.2 238 11.6
2004-03-04 08:03:32 51°12.191 2°48.242 242.2 14.2 238 11.6
2004-03-04 08:03:36 51°12.183 2°48.221 242.4 14.2 239 11.6
2004-03-04 08:03:42 51°12.171 2°48.189 242.6 14.2 239 11.6
2004-03-04 08:03:46 51°12.162 2°48.167 242.6 14.2 239 11.5
2004-03-04 08:03:51 51°12.152 2°48.14 242.7 14.2 239 11.5
2004-03-04 08:03:56 51°12.142 2°48.113 242.8 14.2 239 11.5
2004-03-04 08:04:02 51°12.129 2°48.081 242.6 14.2 239 11.5
2004-03-04 08:04:07 51°12.119 2°48.054 242.2 14.2 239 11.5
2004-03-04 08:04:11 51°12.111 2°48.033 242.1 14.2 238 11.5
2004-03-04 08:04:16 51°12.1 2°48.006 242 14.3 239 11.5
2004-03-04 08:04:20 51°12.092 2°47.985 242 14.2 238 11.5
2004-03-04 08:04:26 51°12.08 2°47.953 242.1 14.2 239 11.5
2004-03-04 08:04:31 51°12.069 2°47.926 242 14.3 238 11.5
2004-03-04 08:04:36 51°12.059 2°47.899 242 14.3 238 11.5
2004-03-04 08:04:42 51°12.046 2°47.867 242.4 14.3 238 11.5
2004-03-04 08:04:46 51°12.038 2°47.845 242.2 14.3 238 11.4
2004-03-04 08:04:51 51°12.027 2°47.819 242.1 14.3 238 11.4
2004-03-04 08:04:56 51°12.017 2°47.792 242.2 14.3 238 11.4
2004-03-04 08:05:02 51°12.004 2°47.76 241.9 14.3 238 11.4
2004-03-04 08:05:06 51°11.996 2°47.738 241.9 14.3 238 11.4
2004-03-04 08:05:11 51°11.985 2°47.712 242 14.2 238 11.4
2004-03-04 08:05:16 51°11.975 2°47.685 241.9 14.3 238 11.4
2004-03-04 08:05:20 51°11.966 2°47.664 241.8 14.3 238 11.4
2004-03-04 08:05:26 51°11.954 2°47.632 242 14.3 237 11.4
2004-03-04 08:05:31 51°11.943 2°47.605 241.7 14.3 238 11.3
2004-03-04 08:05:36 51°11.932 2°47.579 241.6 14.2 238 11.2
2004-03-04 08:05:42 51°11.92 2°47.547 241.5 14.2 237 11.2
2004-03-04 08:05:46 51°11.911 2°47.526 241.4 14.2 238 11.2
2004-03-04 08:05:52 51°11.898 2°47.494 241.6 14.2 238 11.2
2004-03-04 08:05:56 51°11.89 2°47.473 241.7 14.2 238 11.2
2004-03-04 08:06:00 51°11.882 2°47.452 242 14.2 238 11.1
2004-03-04 08:06:06 51°11.869 2°47.419 241.9 14.3 238 11.1
2004-03-04 08:06:10 51°11.861 2°47.398 242.1 14.2 239 11.1
2004-03-04 08:06:16 51°11.848 2°47.366 242.4 14.2 238 11.1
2004-03-04 08:06:22 51°11.836 2°47.334 242.4 14.2 238 11
2004-03-04 08:06:26 51°11.828 2°47.312 242.2 14.3 238 11
2004-03-04 08:06:31 51°11.817 2°47.286 242.2 14.3 238 11
2004-03-04 08:06:36 51°11.806 2°47.259 241.9 14.3 238 10.9
2004-03-04 08:06:40 51°11.798 2°47.238 241.8 14.3 238 10.9
2004-03-04 08:06:47 51°11.783 2°47.2 241.7 14.2 238 10.9
2004-03-04 08:06:51 51°11.775 2°47.179 241.9 14.2 238 10.9
2004-03-04 08:06:56 51°11.765 2°47.152 241.9 14.2 238 10.8
2004-03-04 08:07:00 51°11.756 2°47.131 242 14.4 238 10.8
2004-03-04 08:07:06 51°11.744 2°47.098 242.7 14.2 239 10.8
2004-03-04 08:07:11 51°11.733 2°47.072 243 14.2 239 10.7
2004-03-04 08:07:16 51°11.723 2°47.045 242.4 14.3 239 10.7
2004-03-04 08:07:21 51°11.713 2°47.018 242.6 14.2 239 10.6
2004-03-04 08:07:26 51°11.703 2°46.991 242.6 14.3 238 10.7
2004-03-04 08:07:31 51°11.692 2°46.964 242.5 14.3 238 10.6
2004-03-04 08:07:36 51°11.682 2°46.938 242.6 14.2 238 10.6
2004-03-04 08:07:42 51°11.669 2°46.906 242.3 14.2 238 10.5
2004-03-04 08:07:46 51°11.661 2°46.885 242.2 14.2 238 10.5
2004-03-04 08:07:51 51°11.65 2°46.858 242.1 14.2 238 10.5
2004-03-04 08:07:56 51°11.64 2°46.832 241.9 14.2 238 10.5
2004-03-04 08:08:01 51°11.629 2°46.805 241.6 14.2 237 10.5
2004-03-04 08:08:07 51°11.616 2°46.774 241.5 14.2 237 10.4
2004-03-04 08:08:11 51°11.608 2°46.752 241.6 14.2 238 10.4
2004-03-04 08:08:16 51°11.598 2°46.726 242.1 14.2 238 10.4
2004-03-04 08:08:22 51°11.586 2°46.693 242.4 14.2 239 10.3
2004-03-04 08:08:26 51°11.577 2°46.672 243 14.2 239 10.3
2004-03-04 08:08:31 51°11.567 2°46.645 243.1 14.1 239 10.3
2004-03-04 08:08:36 51°11.557 2°46.619 242.8 14.2 239 10.2
2004-03-04 08:08:42 51°11.544 2°46.587 242.5 14.2 239 10.2
2004-03-04 08:08:46 51°11.536 2°46.566 242.3 14.1 238 10.2
2004-03-04 08:08:51 51°11.526 2°46.539 241.9 14.2 238 10.2
2004-03-04 08:08:56 51°11.515 2°46.513 241.9 14.2 238 10.2
2004-03-04 08:09:00 51°11.507 2°46.491 242.4 14.1 239 10.2
2004-03-04 08:09:06 51°11.495 2°46.459 242.5 14.2 239 10.2
2004-03-04 08:09:12 51°11.483 2°46.427 242.9 14.2 239 10.1
2004-03-04 08:09:16 51°11.475 2°46.406 243 14.1 239 10.1
2004-03-04 08:09:22 51°11.462 2°46.374 242.6 14.1 238 10.1
2004-03-04 08:09:26 51°11.454 2°46.353 242.5 14.1 239 10
2004-03-04 08:09:31 51°11.444 2°46.326 242.8 14.1 239 10.1
2004-03-04 08:09:36 51°11.434 2°46.3 243 14.1 239 10.1
2004-03-04 08:09:42 51°11.422 2°46.268 242.8 14.1 239 10
2004-03-04 08:09:46 51°11.413 2°46.247 242.6 14.1 239 10.1
2004-03-04 08:09:51 51°11.403 2°46.22 243 14 239 10
2004-03-04 08:09:56 51°11.393 2°46.194 242.8 14 239 10
2004-03-04 08:10:00 51°11.385 2°46.173 242.6 14.1 239 9.9
2004-03-04 08:10:06 51°11.373 2°46.14 242.3 14.1 239 9.9
2004-03-04 08:10:12 51°11.362 2°46.108 243.4 14 241 9.9
2004-03-04 08:10:16 51°11.354 2°46.087 244.5 14 241 9.9
2004-03-04 08:10:20 51°11.347 2°46.064 245.4 14.1 242 9.9
2004-03-04 08:10:27 51°11.335 2°46.025 247.1 14 244 9.9
2004-03-04 08:10:30 51°11.331 2°46.008 248.6 14 244 9.9
2004-03-04 08:10:36 51°11.322 2°45.974 250.4 14 248 9.9
2004-03-04 08:10:42 51°11.313 2°45.939 251.9 14 248 9.9
2004-03-04 08:10:46 51°11.308 2°45.916 252.8 14 249 9.9
2004-03-04 08:10:51 51°11.301 2°45.887 253.6 14 249 9.9
2004-03-04 08:10:56 51°11.294 2°45.858 253.9 14.1 249 10
2004-03-04 08:11:00 51°11.289 2°45.835 254.2 14.1 250 10
2004-03-04 08:11:06 51°11.28 2°45.8 254 14.1 249 10
2004-03-04 08:11:10 51°11.275 2°45.777 253.6 14.1 249 10
2004-03-04 08:11:16 51°11.266 2°45.742 253.5 14.1 249 10.1
2004-03-04 08:11:22 51°11.258 2°45.707 253.7 14.1 249 10
2004-03-04 08:11:26 51°11.253 2°45.684 254.2 14.1 250 10.2
2004-03-04 08:11:31 51°11.246 2°45.654 254.7 14.1 251 10.1
2004-03-04 08:11:36 51°11.24 2°45.625 255.2 14.1 251 10.1
2004-03-04 08:11:42 51°11.232 2°45.589 255.6 14.1 251 10.1
2004-03-04 08:11:46 51°11.227 2°45.566 255.7 14.1 251 10.2
2004-03-04 08:11:50 51°11.222 2°45.542 255.5 14.1 250 10.2
2004-03-04 08:11:56 51°11.214 2°45.507 255.1 14.1 250 10.2
2004-03-04 08:12:02 51°11.206 2°45.472 254.7 14.2 250 10.2
2004-03-04 08:12:06 51°11.2 2°45.448 254.5 14.2 250 10.2
2004-03-04 08:12:12 51°11.192 2°45.413 254.6 14.2 250 10.3
2004-03-04 08:12:16 51°11.187 2°45.389 254.9 14.2 250 10.2
2004-03-04 08:12:20 51°11.182 2°45.366 255 14.1 251 10.2
2004-03-04 08:12:26 51°11.174 2°45.33 255 14.2 251 10.2
2004-03-04 08:12:30 51°11.169 2°45.307 255.1 14.2 251 10.3
2004-03-04 08:12:36 51°11.161 2°45.272 255 14.1 250 10.3
2004-03-04 08:12:40 51°11.156 2°45.248 254.6 14.2 250 10.3
2004-03-04 08:12:46 51°11.148 2°45.213 254.7 14.1 250 10.3
2004-03-04 08:12:51 51°11.141 2°45.183 254.8 14.2 251 10.2
2004-03-04 08:12:56 51°11.135 2°45.153 255.2 14.2 251 10.3
2004-03-04 08:13:02 51°11.127 2°45.118 255.3 14.1 250 10.3
2004-03-04 08:13:06 51°11.122 2°45.094 254.7 14.2 250 10.4
2004-03-04 08:13:12 51°11.114 2°45.059 254.8 14.2 250 10.3
2004-03-04 08:13:16 51°11.109 2°45.035 255.1 14.2 250 10.4
2004-03-04 08:13:22 51°11.1 2°45 254.8 14.2 250 10.4
2004-03-04 08:13:26 51°11.095 2°44.976 254.6 14.2 250 10.4
2004-03-04 08:13:30 51°11.09 2°44.953 254.6 14.2 250 10.4
2004-03-04 08:13:36 51°11.082 2°44.917 254.6 14.2 251 10.4
2004-03-04 08:13:40 51°11.077 2°44.894 255.1 14.2 251 10.5
2004-03-04 08:13:46 51°11.069 2°44.858 255.1 14.2 250 10.4
2004-03-04 08:13:51 51°11.062 2°44.829 254.7 14.2 250 10.5
2004-03-04 08:13:56 51°11.055 2°44.799 254.7 14.2 250 10.5
2004-03-04 08:14:02 51°11.047 2°44.764 254.4 14.2 250 10.5
2004-03-04 08:14:06 51°11.042 2°44.74 254.1 14.2 249 10.5
2004-03-04 08:14:10 51°11.036 2°44.717 254.1 14.2 250 10.5
2004-03-04 08:14:16 51°11.028 2°44.681 254.4 14.2 250 10.5
2004-03-04 08:14:20 51°11.023 2°44.658 254.7 14.2 250 10.5
2004-03-04 08:14:26 51°11.014 2°44.622 254.5 14.2 250 10.4
2004-03-04 08:14:30 51°11.009 2°44.599 254.5 14.2 250 10.5
2004-03-04 08:14:36 51°11.001 2°44.564 254.5 14.1 250 10.5
2004-03-04 08:14:40 51°10.996 2°44.54 254.5 14.2 250 10.5
2004-03-04 08:14:46 51°10.988 2°44.504 254.5 14.2 250 10.5
2004-03-04 08:14:52 51°10.98 2°44.469 254.6 14.2 250 10.5
2004-03-04 08:14:56 51°10.975 2°44.445 254.7 14.2 251 10.6
2004-03-04 08:15:02 51°10.967 2°44.41 254.7 14.2 251 10.6
2004-03-04 08:15:06 51°10.962 2°44.386 254.7 14.1 251 10.6
2004-03-04 08:15:11 51°10.955 2°44.357 254.8 14.2 251 10.5
2004-03-04 08:15:16 51°10.949 2°44.327 255 14.2 251 10.5
2004-03-04 08:15:20 51°10.944 2°44.304 255 14.2 251 10.6
2004-03-04 08:15:26 51°10.936 2°44.268 254.6 14.2 250 10.6
2004-03-04 08:15:30 51°10.93 2°44.245 254.1 14.2 249 10.6
2004-03-04 08:15:36 51°10.922 2°44.21 254 14.1 250 10.6
2004-03-04 08:15:40 51°10.917 2°44.186 254.1 14.1 250 10.6
2004-03-04 08:15:46 51°10.909 2°44.151 254.3 14.2 251 10.6
2004-03-04 08:15:51 51°10.902 2°44.121 254.7 14.2 250 10.7
2004-03-04 08:15:56 51°10.895 2°44.092 254.3 14.2 250 10.6
2004-03-04 08:16:00 51°10.89 2°44.069 254.1 14.2 250 10.6
2004-03-04 08:16:06 51°10.882 2°44.034 253.9 14.2 250 10.6
2004-03-04 08:16:11 51°10.875 2°44.004 253.9 14.2 250 10.6
2004-03-04 08:16:16 51°10.869 2°43.975 254.3 14.1 250 10.6
2004-03-04 08:16:22 51°10.861 2°43.939 254.5 14.1 250 10.6
2004-03-04 08:16:26 51°10.855 2°43.916 254.5 14.2 250 10.6
2004-03-04 08:16:30 51°10.85 2°43.892 254.5 14.2 250 10.6
2004-03-04 08:16:36 51°10.842 2°43.857 254.5 14.2 250 10.6
2004-03-04 08:16:42 51°10.834 2°43.822 254.2 14.1 250 10.6
2004-03-04 08:16:46 51°10.828 2°43.799 254 14.1 250 10.6
2004-03-04 08:16:52 51°10.82 2°43.763 253.8 14.2 249 10.7
2004-03-04 08:16:56 51°10.815 2°43.74 253.6 14.2 249 10.6
2004-03-04 08:17:02 51°10.807 2°43.705 253.9 14.2 250 10.6
2004-03-04 08:17:06 51°10.801 2°43.681 254 14.1 250 10.6
2004-03-04 08:17:10 51°10.796 2°43.658 254.1 14.1 250 10.6
2004-03-04 08:17:16 51°10.788 2°43.623 254.1 14.1 250 10.6
2004-03-04 08:17:20 51°10.782 2°43.599 254.1 14.2 250 10.6
2004-03-04 08:17:26 51°10.774 2°43.564 254.1 14.2 250 10.6
2004-03-04 08:17:30 51°10.769 2°43.54 254 14.1 250 10.7
2004-03-04 08:17:36 51°10.761 2°43.505 254 14.2 250 10.7
2004-03-04 08:17:42 51°10.753 2°43.47 254 14.2 250 10.7
2004-03-04 08:17:46 51°10.748 2°43.446 254.2 14.2 250 10.7
2004-03-04 08:17:51 51°10.741 2°43.417 254.3 14.2 251 10.6
2004-03-04 08:17:56 51°10.735 2°43.387 254.6 14.1 251 10.6
2004-03-04 08:18:00 51°10.73 2°43.363 254.8 14.1 251 10.6
2004-03-04 08:18:07 51°10.72 2°43.322 254.7 14.2 250 10.7
2004-03-04 08:18:11 51°10.715 2°43.299 254.2 14.2 250 10.7
2004-03-04 08:18:16 51°10.708 2°43.269 253.9 14.2 250 10.6
2004-03-04 08:18:20 51°10.703 2°43.246 253.9 14.1 250 10.6
2004-03-04 08:18:26 51°10.695 2°43.211 254 14.1 250 10.6
2004-03-04 08:18:31 51°10.688 2°43.181 254 14.2 251 10.6
2004-03-04 08:18:36 51°10.681 2°43.152 254.5 14.1 250 10.7
2004-03-04 08:18:42 51°10.674 2°43.116 254.5 14.1 250 10.6
2004-03-04 08:18:46 51°10.668 2°43.092 254.3 14.1 250 10.6
2004-03-04 08:18:52 51°10.66 2°43.057 254 14.1 250 10.6
2004-03-04 08:18:56 51°10.655 2°43.034 254 14.1 250 10.6
2004-03-04 08:19:02 51°10.647 2°42.998 254 14.1 250 10.6
2004-03-04 08:19:06 51°10.641 2°42.975 254 14.2 250 10.6
2004-03-04 08:19:10 51°10.636 2°42.951 254.1 14.2 250 10.7
2004-03-04 08:19:16 51°10.628 2°42.916 254.2 14.1 250 10.6
2004-03-04 08:19:22 51°10.62 2°42.881 254.2 14.2 251 10.6
2004-03-04 08:19:26 51°10.615 2°42.857 254.5 14.1 251 10.7
2004-03-04 08:19:31 51°10.609 2°42.828 254.7 14.1 251 10.7
2004-03-04 08:19:36 51°10.602 2°42.798 254.4 14.2 250 10.6
2004-03-04 08:19:42 51°10.594 2°42.763 254.5 14.1 251 10.7
2004-03-04 08:19:46 51°10.589 2°42.739 254.5 14.1 251 10.7
2004-03-04 08:19:51 51°10.583 2°42.71 254.4 14.1 251 10.7
2004-03-04 08:19:56 51°10.576 2°42.68 254.7 14.1 251 10.6
2004-03-04 08:20:00 51°10.571 2°42.657 254.6 14.1 251 10.7
2004-03-04 08:20:06 51°10.563 2°42.622 254.5 14.1 251 10.7
2004-03-04 08:20:10 51°10.558 2°42.598 254.5 14.1 251 10.6
2004-03-04 08:20:16 51°10.551 2°42.563 254.5 14.1 251 10.7
2004-03-04 08:20:22 51°10.543 2°42.528 254.7 14.1 251 10.7
2004-03-04 08:20:26 51°10.538 2°42.504 254.8 14.1 251 10.7
2004-03-04 08:20:31 51°10.531 2°42.475 254.8 14.1 251 10.7
2004-03-04 08:20:36 51°10.525 2°42.445 254.8 14.1 251 10.7
2004-03-04 08:20:42 51°10.517 2°42.41 254.8 14.1 251 10.8
2004-03-04 08:20:46 51°10.512 2°42.387 254.7 14.1 251 10.7
2004-03-04 08:20:50 51°10.507 2°42.363 254.3 14.1 250 10.7
2004-03-04 08:20:56 51°10.499 2°42.328 254 14.1 250 10.7
2004-03-04 08:21:02 51°10.491 2°42.293 253.4 14.1 249 10.8
2004-03-04 08:21:06 51°10.485 2°42.27 253.3 14.1 250 10.8
2004-03-04 08:21:11 51°10.479 2°42.241 253.4 14 250 10.8
2004-03-04 08:21:16 51°10.472 2°42.212 253.7 14.1 250 10.8
2004-03-04 08:21:22 51°10.464 2°42.177 254 14.1 251 10.8
2004-03-04 08:21:26 51°10.459 2°42.153 254.3 14.1 251 10.8
2004-03-04 08:21:30 51°10.454 2°42.13 254.6 14 251 10.8
2004-03-04 08:21:36 51°10.446 2°42.095 254.6 14 250 10.9
2004-03-04 08:21:41 51°10.44 2°42.066 254.4 14.1 251 10.9
2004-03-04 08:21:46 51°10.433 2°42.036 254.5 14.1 251 10.9
2004-03-04 08:21:52 51°10.426 2°42.001 254.7 14.1 251 10.9
2004-03-04 08:21:56 51°10.421 2°41.978 255 14 251 10.9
2004-03-04 08:22:02 51°10.413 2°41.943 254.8 14 251 11
2004-03-04 08:22:06 51°10.408 2°41.919 254.7 14 251 10.9
2004-03-04 08:22:12 51°10.401 2°41.884 254.7 14 251 10.9
2004-03-04 08:22:16 51°10.395 2°41.861 254.4 14.1 251 10.9
2004-03-04 08:22:22 51°10.388 2°41.826 254.4 14.1 251 10.9
2004-03-04 08:22:26 51°10.383 2°41.802 254.5 14 251 11
2004-03-04 08:22:31 51°10.376 2°41.773 254.7 13.9 251 11
2004-03-04 08:22:36 51°10.37 2°41.744 254.5 14 251 11
2004-03-04 08:22:40 51°10.365 2°41.721 254.4 14 251 11
2004-03-04 08:22:46 51°10.357 2°41.685 254.4 14 251 11
2004-03-04 08:22:50 51°10.352 2°41.662 254.5 14 251 11.1
2004-03-04 08:22:56 51°10.344 2°41.627 254.7 14 251 11.1
2004-03-04 08:23:02 51°10.336 2°41.592 254.6 13.9 251 11.1
2004-03-04 08:23:07 51°10.33 2°41.563 254.4 14 250 11.1
2004-03-04 08:23:11 51°10.325 2°41.54 254.1 14 251 11.1
2004-03-04 08:23:16 51°10.318 2°41.511 254 14 250 11.1
2004-03-04 08:23:20 51°10.313 2°41.487 254.5 14 251 11.1
2004-03-04 08:23:26 51°10.306 2°41.452 255.4 13.9 252 11.2
2004-03-04 08:23:32 51°10.299 2°41.417 256.2 13.9 253 11.2
2004-03-04 08:23:36 51°10.295 2°41.393 256.9 13.9 254 11.2
2004-03-04 08:23:40 51°10.29 2°41.369 257.3 13.9 254 11.2
2004-03-04 08:23:47 51°10.283 2°41.328 257.7 14 254 11.2
2004-03-04 08:23:50 51°10.28 2°41.31 257.8 14 254 11.2
2004-03-04 08:23:56 51°10.273 2°41.274 257.9 13.9 254 11.3
2004-03-04 08:24:02 51°10.266 2°41.239 257.9 13.9 254 11.3
2004-03-04 08:24:06 51°10.262 2°41.215 257.6 13.9 254 11.3
2004-03-04 08:24:12 51°10.255 2°41.18 257.5 13.9 253 11.3
2004-03-04 08:24:16 51°10.251 2°41.156 257.1 13.9 253 11.4
2004-03-04 08:24:20 51°10.246 2°41.133 257.2 13.9 253 11.5
2004-03-04 08:24:26 51°10.24 2°41.097 257.1 13.9 254 11.4
2004-03-04 08:24:30 51°10.236 2°41.074 257.3 13.9 254 11.4
2004-03-04 08:24:36 51°10.229 2°41.039 257.6 13.9 254 11.5
2004-03-04 08:24:42 51°10.223 2°41.003 257.6 13.9 254 11.5
2004-03-04 08:24:46 51°10.219 2°40.98 257.7 13.9 254 11.5
2004-03-04 08:24:50 51°10.215 2°40.956 257.8 13.9 254 11.6
2004-03-04 08:24:56 51°10.208 2°40.92 257.9 13.9 254 11.5
2004-03-04 08:25:00 51°10.204 2°40.897 258 13.9 255 11.6
2004-03-04 08:25:06 51°10.198 2°40.862 257.8 13.9 254 11.6
2004-03-04 08:25:10 51°10.194 2°40.838 257.4 13.9 254 11.6
2004-03-04 08:25:16 51°10.187 2°40.803 257.3 13.9 254 11.6
2004-03-04 08:25:22 51°10.18 2°40.768 257 13.9 253 11.7
2004-03-04 08:25:24 51°10.178 2°40.756 257 13.9 254 11.7
2004-03-04 08:25:31 51°10.171 2°40.715 257.4 13.9 254 11.7
2004-03-04 08:25:36 51°10.166 2°40.686 257.6 13.8 254 11.8
2004-03-04 08:25:42 51°10.159 2°40.65 257.6 13.8 253 11.8
2004-03-04 08:25:46 51°10.155 2°40.627 257.6 13.9 254 11.8
2004-03-04 08:25:52 51°10.149 2°40.592 257.4 13.9 254 11.8
2004-03-04 08:25:56 51°10.144 2°40.568 257.2 13.9 254 11.8
2004-03-04 08:26:00 51°10.14 2°40.545 257.2 13.8 254 11.8
2004-03-04 08:26:06 51°10.133 2°40.51 257.4 13.8 254 11.8
2004-03-04 08:26:11 51°10.128 2°40.48 257.4 13.8 254 11.8
2004-03-04 08:26:16 51°10.123 2°40.451 257.5 13.8 254 11.8
2004-03-04 08:26:22 51°10.117 2°40.416 257.7 13.8 254 11.8
2004-03-04 08:26:26 51°10.112 2°40.392 257.6 13.8 254 11.8
2004-03-04 08:26:30 51°10.108 2°40.369 257.4 13.8 254 11.9
2004-03-04 08:26:36 51°10.101 2°40.334 257.3 13.8 254 11.9
2004-03-04 08:26:40 51°10.097 2°40.311 257.3 13.8 254 11.9
2004-03-04 08:26:46 51°10.091 2°40.275 257.3 13.8 254 11.9
2004-03-04 08:26:50 51°10.087 2°40.252 257.4 13.8 254 11.9
2004-03-04 08:26:56 51°10.08 2°40.217 257.5 13.8 254 12
2004-03-04 08:27:02 51°10.074 2°40.182 257.5 13.8 254 12
2004-03-04 08:27:06 51°10.069 2°40.158 257 13.8 253 12
2004-03-04 08:27:11 51°10.064 2°40.129 256.9 13.8 254 12
2004-03-04 08:27:16 51°10.058 2°40.1 256.9 13.9 253 12
2004-03-04 08:27:22 51°10.052 2°40.065 257 13.8 254 12
2004-03-04 08:27:26 51°10.048 2°40.041 257.6 13.8 254 12.1
2004-03-04 08:27:31 51°10.042 2°40.012 257.6 13.8 254 12
2004-03-04 08:27:36 51°10.037 2°39.983 257.5 13.8 254 12.1
2004-03-04 08:27:42 51°10.031 2°39.948 257.6 13.8 254 12.1
2004-03-04 08:27:47 51°10.025 2°39.918 257.2 13.8 253 12.1
2004-03-04 08:27:51 51°10.021 2°39.895 256.9 13.8 253 12.1
2004-03-04 08:27:56 51°10.016 2°39.866 256.9 13.8 254 12.1
2004-03-04 08:28:00 51°10.012 2°39.843 256.9 13.8 254 12.1
2004-03-04 08:28:06 51°10.006 2°39.807 257.3 13.8 254 12.1
2004-03-04 08:28:10 51°10.002 2°39.784 257.9 13.8 255 12.2
2004-03-04 08:28:16 51°9.996 2°39.749 258.5 13.8 255 12.2
2004-03-04 08:28:22 51°9.99 2°39.713 258.6 13.8 255 12.3
2004-03-04 08:28:26 51°9.986 2°39.69 258.8 13.8 255 12.3
2004-03-04 08:28:31 51°9.981 2°39.66 258.8 13.8 256 12.2
2004-03-04 08:28:36 51°9.976 2°39.631 258.7 13.8 255 12.3
2004-03-04 08:28:41 51°9.971 2°39.601 258.4 13.8 255 12.3
2004-03-04 08:28:47 51°9.965 2°39.566 258.4 13.8 255 12.3
2004-03-04 08:28:52 51°9.961 2°39.537 258.8 13.8 255 12.3
2004-03-04 08:28:56 51°9.957 2°39.513 258.8 13.8 255 12.4
2004-03-04 08:29:02 51°9.951 2°39.478 258.8 13.8 256 12.4
2004-03-04 08:29:06 51°9.947 2°39.454 258.8 13.8 256 12.4
2004-03-04 08:29:11 51°9.942 2°39.425 258.8 13.8 256 12.5
2004-03-04 08:29:16 51°9.937 2°39.395 258.9 13.8 256 12.5
2004-03-04 08:29:22 51°9.932 2°39.36 259 13.8 256 12.6
2004-03-04 08:29:26 51°9.928 2°39.336 258.8 13.8 255 12.6
2004-03-04 08:29:30 51°9.924 2°39.313 258.5 13.8 255 12.7
2004-03-04 08:29:36 51°9.918 2°39.278 258.4 13.8 255 12.7
2004-03-04 08:29:42 51°9.912 2°39.242 258.3 13.8 256 12.7
2004-03-04 08:29:46 51°9.908 2°39.219 258.3 13.8 255 12.8
2004-03-04 08:29:51 51°9.903 2°39.19 258.3 13.8 256 12.9
2004-03-04 08:29:56 51°9.898 2°39.16 258.4 13.7 255 12.9
2004-03-04 08:30:00 51°9.895 2°39.137 258.4 13.8 256 12.9
2004-03-04 08:30:06 51°9.889 2°39.102 258.5 13.7 255 13
2004-03-04 08:30:11 51°9.884 2°39.072 258.3 13.7 255 13
2004-03-04 08:30:16 51°9.879 2°39.043 258.2 13.8 255 13.1
2004-03-04 08:30:20 51°9.875 2°39.019 258.2 13.7 255 13
2004-03-04 08:30:26 51°9.869 2°38.984 258.3 13.7 255 13.1
2004-03-04 08:30:32 51°9.864 2°38.949 258.5 13.7 256 13.2
2004-03-04 08:30:36 51°9.86 2°38.925 258.5 13.8 255 13.3
2004-03-04 08:30:42 51°9.854 2°38.89 258.3 13.7 255 13.3
2004-03-04 08:30:46 51°9.85 2°38.867 258.3 13.7 255 13.3
2004-03-04 08:30:51 51°9.845 2°38.837 258.2 13.7 255 13.3
2004-03-04 08:30:56 51°9.84 2°38.808 258.2 13.7 255 13.4
2004-03-04 08:31:02 51°9.835 2°38.773 258.2 13.8 255 13.5
2004-03-04 08:31:06 51°9.831 2°38.749 258.4 13.7 256 13.5
2004-03-04 08:31:11 51°9.826 2°38.72 258.7 13.8 255 13.5
2004-03-04 08:31:16 51°9.822 2°38.691 258.6 13.8 256 13.6
2004-03-04 08:31:22 51°9.816 2°38.655 258.7 13.7 255 13.6
2004-03-04 08:31:26 51°9.812 2°38.632 258.3 13.8 256 13.8
2004-03-04 08:31:31 51°9.807 2°38.603 258.2 13.7 255 13.8
2004-03-04 08:31:36 51°9.802 2°38.573 258.2 13.7 255 13.8
2004-03-04 08:31:41 51°9.797 2°38.544 258.3 13.7 255 13.9
2004-03-04 08:31:47 51°9.792 2°38.508 258.4 13.7 256 14
2004-03-04 08:31:52 51°9.787 2°38.479 258.6 13.7 256 14
2004-03-04 08:31:56 51°9.783 2°38.456 258.4 13.7 256 14.2
2004-03-04 08:32:02 51°9.777 2°38.421 258.4 13.7 255 14.2
2004-03-04 08:32:06 51°9.774 2°38.397 258.2 13.7 256 14.3
2004-03-04 08:32:11 51°9.768 2°38.368 258.2 13.7 255 14.3
2004-03-04 08:32:16 51°9.764 2°38.338 258.1 13.7 255 14.4
2004-03-04 08:32:22 51°9.758 2°38.303 258.1 13.8 255 14.5
2004-03-04 08:32:26 51°9.754 2°38.28 258.1 13.7 255 14.5
2004-03-04 08:32:31 51°9.749 2°38.25 258.1 13.7 255 14.5
2004-03-04 08:32:36 51°9.744 2°38.221 258.2 13.7 255 14.6
2004-03-04 08:32:41 51°9.739 2°38.192 258 13.7 255 14.7
2004-03-04 08:32:46 51°9.735 2°38.162 258.2 13.8 256 14.8
2004-03-04 08:32:51 51°9.73 2°38.133 258.3 13.7 255 14.8
2004-03-04 08:32:56 51°9.725 2°38.103 258.3 13.7 256 14.8
2004-03-04 08:33:02 51°9.719 2°38.068 258.3 13.8 255 14.9
2004-03-04 08:33:06 51°9.715 2°38.045 258.1 13.8 255 15
2004-03-04 08:33:11 51°9.71 2°38.015 258 13.7 255 15.1
2004-03-04 08:33:16 51°9.705 2°37.986 257.6 13.8 255 15.1
2004-03-04 08:33:22 51°9.699 2°37.951 257.7 13.7 255 15.2
2004-03-04 08:33:26 51°9.696 2°37.927 257.7 13.7 256 15.3
2004-03-04 08:33:31 51°9.691 2°37.898 258.3 13.7 256 15.3
2004-03-04 08:33:36 51°9.687 2°37.868 258.3 13.7 255 15.4
2004-03-04 08:33:41 51°9.682 2°37.839 258.7 13.8 256 15.4
2004-03-04 08:33:46 51°9.677 2°37.81 258.5 13.7 256 15.5
2004-03-04 08:33:52 51°9.671 2°37.774 258.4 13.7 256 15.6
2004-03-04 08:33:56 51°9.668 2°37.751 258.3 13.8 256 15.8
2004-03-04 08:34:02 51°9.662 2°37.715 258.4 13.7 256 15.7
2004-03-04 08:34:06 51°9.658 2°37.692 258.4 13.8 256 15.7
2004-03-04 08:34:12 51°9.653 2°37.656 258.6 13.8 256 15.9
2004-03-04 08:34:16 51°9.649 2°37.633 258.7 13.8 256 16
2004-03-04 08:34:20 51°9.645 2°37.609 258.3 13.8 256 16.1
2004-03-04 08:34:27 51°9.639 2°37.568 258.3 13.8 256 16.1
2004-03-04 08:34:31 51°9.635 2°37.544 258.3 13.8 256 16.2
2004-03-04 08:34:36 51°9.631 2°37.514 258.9 13.8 258 16.2
2004-03-04 08:34:40 51°9.628 2°37.49 260.3 13.8 259 16.3
2004-03-04 08:34:46 51°9.625 2°37.456 262.1 13.1 261 16.5
2004-03-04 08:34:51 51°9.623 2°37.429 263 12.3 261 16.6
2004-03-04 08:34:56 51°9.62 2°37.405 263.6 11.9 261 16.7
2004-03-04 08:35:02 51°9.619 2°37.377 264.9 10.6 264 16.8
2004-03-04 08:35:06 51°9.618 2°37.36 266.6 9.7 267 16.9
2004-03-04 08:35:11 51°9.618 2°37.341 269.2 9.1 268 16.8
2004-03-04 08:35:16 51°9.618 2°37.323 271.4 8.3 271 16.8
2004-03-04 08:35:22 51°9.619 2°37.302 274.2 7.9 273 17
2004-03-04 08:35:26 51°9.62 2°37.29 277.4 7.3 277 17.3
2004-03-04 08:35:30 51°9.621 2°37.278 280.3 7.1 278 17.4
2004-03-04 08:35:36 51°9.624 2°37.261 283.1 6.6 281 17.4
2004-03-04 08:35:40 51°9.625 2°37.25 285.8 6.3 283 17.4
2004-03-04 08:35:46 51°9.628 2°37.235 287.9 5.9 285 17.4
2004-03-04 08:35:52 51°9.63 2°37.221 288.6 5.5 285 17.4
2004-03-04 08:35:56 51°9.631 2°37.212 287.4 5.2 283 17.4
2004-03-04 08:36:02 51°9.632 2°37.199 283.9 5 279 17.5
2004-03-04 08:36:06 51°9.633 2°37.191 278.9 4.8 274 17.2
2004-03-04 08:36:11 51°9.633 2°37.181 273.3 4.6 269 17.4
2004-03-04 08:36:16 51°9.632 2°37.171 267.7 4.5 267 17.3
2004-03-04 08:36:20 51°9.631 2°37.164 262 4.3 261 17.3
2004-03-04 08:36:27 51°9.628 2°37.152 256.3 4 252 17.3
2004-03-04 08:36:31 51°9.627 2°37.146 250.9 3.9 248 17.3
2004-03-04 08:36:36 51°9.624 2°37.139 245.3 3.8 243 17.3
2004-03-04 08:36:41 51°9.621 2°37.133 239.7 3.5 238 17.3
2004-03-04 08:36:46 51°9.619 2°37.127 235.5 3.3 235 17.3
2004-03-04 08:36:51 51°9.616 2°37.121 233.1 3.2 233 17.2
2004-03-04 08:36:56 51°9.613 2°37.116 231.5 3.1 233 17.4
2004-03-04 08:37:02 51°9.61 2°37.11 230.4 3 231 17.3
2004-03-04 08:37:06 51°9.608 2°37.106 229.3 2.9 230 17.3
2004-03-04 08:37:11 51°9.606 2°37.101 228.3 2.8 228 17.3
2004-03-04 08:37:16 51°9.603 2°37.097 227.5 2.7 228 17.4
2004-03-04 08:37:22 51°9.6 2°37.092 226.7 2.7 228 17.3
2004-03-04 08:37:26 51°9.598 2°37.088 226 2.6 226 17.4
2004-03-04 08:37:31 51°9.596 2°37.084 225.2 2.5 226 17.3
2004-03-04 08:37:36 51°9.593 2°37.08 224.5 2.5 224 17.4
2004-03-04 08:37:42 51°9.59 2°37.076 223.8 2.4 226 17.3
2004-03-04 08:37:46 51°9.588 2°37.073 223.3 2.3 223 17.3
2004-03-04 08:37:52 51°9.586 2°37.069 222.5 2.3 223 17.5
2004-03-04 08:37:56 51°9.584 2°37.067 221.9 2.2 222 17.5
2004-03-04 08:38:02 51°9.581 2°37.063 221.3 2.1 222 17.3
2004-03-04 08:38:06 51°9.579 2°37.06 220.8 2.1 222 17.3
2004-03-04 08:38:12 51°9.577 2°37.057 220.4 2 224 17.3
2004-03-04 08:38:16 51°9.575 2°37.055 219.9 2 221 17.4
2004-03-04 08:38:22 51°9.573 2°37.051 219.6 2 221 17.3
2004-03-04 08:38:26 51°9.571 2°37.049 219.1 1.9 221 17.3
2004-03-04 08:38:30 51°9.57 2°37.047 218.8 1.9 221 17.3
2004-03-04 08:38:36 51°9.567 2°37.044 218.4 1.8 219 17.3
2004-03-04 08:38:42 51°9.565 2°37.041 218 1.8 219 17.3
2004-03-04 08:38:46 51°9.564 2°37.039 217.6 1.7 219 17.3
2004-03-04 08:38:51 51°9.562 2°37.037 217.3 1.7 220 17.3
2004-03-04 08:38:56 51°9.56 2°37.034 216.9 1.6 221 17.3
2004-03-04 08:39:02 51°9.558 2°37.032 216.5 1.6 222 17.3
2004-03-04 08:39:06 51°9.557 2°37.03 216.2 1.6 221 17.3
2004-03-04 08:39:11 51°9.555 2°37.028 215.7 1.5 218 17.3
2004-03-04 08:39:16 51°9.553 2°37.026 215.4 1.5 220 17.3
2004-03-04 08:39:22 51°9.551 2°37.024 215 1.5 221 17.3
2004-03-04 08:39:26 51°9.55 2°37.022 214.8 1.4 218 17.3
2004-03-04 08:39:30 51°9.549 2°37.021 214.4 1.4 218 17.3
2004-03-04 08:39:36 51°9.547 2°37.019 214.1 1.4 216 17.3
2004-03-04 08:39:40 51°9.546 2°37.017 213.9 1.3 219 17.3
2004-03-04 08:39:47 51°9.544 2°37.015 213.7 1.4 218 17.3
2004-03-04 08:39:51 51°9.543 2°37.013 213.5 1.4 215 17.2
2004-03-04 08:39:56 51°9.541 2°37.011 213.6 1.6 216 17.3
2004-03-04 08:40:00 51°9.539 2°37.009 214 1.9 216 17.4
2004-03-04 08:40:06 51°9.536 2°37.006 214.8 2.3 217 17.3
2004-03-04 08:40:11 51°9.533 2°37.002 216.2 2.3 217 17.2
2004-03-04 08:40:16 51°9.53 2°36.999 218.1 2.7 218 17.2
2004-03-04 08:40:20 51°9.527 2°36.995 220 2.9 221 17.3
2004-03-04 08:40:26 51°9.524 2°36.99 221.9 3.1 222 17.2
2004-03-04 08:40:31 51°9.521 2°36.985 224.1 3.2 223 17.3
2004-03-04 08:40:36 51°9.517 2°36.98 226.3 3.3 227 17.2
2004-03-04 08:40:42 51°9.514 2°36.973 227.9 3.3 227 17.1
2004-03-04 08:40:47 51°9.51 2°36.967 230.3 3.6 231 17.3
2004-03-04 08:40:50 51°9.509 2°36.963 232.9 3.6 231 17.3
2004-03-04 08:40:56 51°9.505 2°36.955 235.5 3.7 235 17.2
2004-03-04 08:41:02 51°9.501 2°36.946 236.7 3.8 235 17.2
2004-03-04 08:41:07 51°9.498 2°36.939 237.8 3.9 238 17.2
2004-03-04 08:41:11 51°9.496 2°36.933 238.7 4 238 17.3
2004-03-04 08:41:16 51°9.493 2°36.925 239.5 4.1 239 17.2
2004-03-04 08:41:22 51°9.49 2°36.916 240.2 4.1 239 17.3
2004-03-04 08:41:26 51°9.487 2°36.909 240.6 4.2 241 17.2
2004-03-04 08:41:31 51°9.484 2°36.901 241.2 4.3 240 17.2
2004-03-04 08:41:36 51°9.482 2°36.892 241.7 4.3 242 17.2
2004-03-04 08:41:42 51°9.478 2°36.882 242.3 4.3 241 17.2
2004-03-04 08:41:46 51°9.476 2°36.876 242.7 4.3 242 17.2
2004-03-04 08:41:52 51°9.473 2°36.866 243.1 4.3 241 17.2
2004-03-04 08:41:56 51°9.471 2°36.859 243.2 4.2 244 17.2
2004-03-04 08:42:02 51°9.468 2°36.85 243.3 4.1 241 17.3
2004-03-04 08:42:06 51°9.466 2°36.843 243.3 4 244 17.2
2004-03-04 08:42:10 51°9.463 2°36.837 243.1 3.9 241 17.3
2004-03-04 08:42:16 51°9.461 2°36.828 243 3.9 244 17.2
2004-03-04 08:42:22 51°9.458 2°36.819 242.7 3.8 241 17.2
2004-03-04 08:42:26 51°9.456 2°36.813 242.4 3.8 243 17.2
2004-03-04 08:42:31 51°9.453 2°36.806 241.9 3.7 241 17.5
2004-03-04 08:42:36 51°9.451 2°36.799 241.6 3.7 242 17.1
2004-03-04 08:42:42 51°9.448 2°36.79 241.1 3.6 241 17.3
2004-03-04 08:42:46 51°9.446 2°36.785 240.6 3.6 241 17.3
2004-03-04 08:42:52 51°9.443 2°36.777 240.2 3.5 239 17.2
2004-03-04 08:42:56 51°9.441 2°36.772 239.8 3.5 240 17.2
2004-03-04 08:43:02 51°9.438 2°36.764 239.3 3.5 240 17.2
2004-03-04 08:43:06 51°9.436 2°36.759 238.7 3.5 239 17.3
2004-03-04 08:43:11 51°9.433 2°36.752 238.3 3.4 237 17.3
2004-03-04 08:43:16 51°9.431 2°36.746 238 3.4 238 17.3
2004-03-04 08:43:22 51°9.428 2°36.738 238 3.5 238 17.4
2004-03-04 08:43:26 51°9.425 2°36.733 238 3.4 237 17.3
2004-03-04 08:43:31 51°9.423 2°36.727 238.1 3.5 239 17.2
2004-03-04 08:43:36 51°9.42 2°36.72 238.5 3.4 238 17.2
2004-03-04 08:43:41 51°9.418 2°36.713 238.7 3.4 239 17.3
2004-03-04 08:43:46 51°9.416 2°36.707 239.1 3.4 239 17.2
2004-03-04 08:43:51 51°9.413 2°36.7 239.5 3.4 240 17.2
2004-03-04 08:43:56 51°9.411 2°36.694 240.1 3.4 239 17.3
2004-03-04 08:44:02 51°9.408 2°36.686 240.5 3.4 240 17.3
2004-03-04 08:44:06 51°9.406 2°36.681 240.9 3.4 240 17.3
2004-03-04 08:44:10 51°9.404 2°36.676 241.4 3.4 240 17.3
2004-03-04 08:44:16 51°9.402 2°36.668 242.1 3.4 242 17.2
2004-03-04 08:44:22 51°9.399 2°36.66 242.5 3.4 242 17.3
2004-03-04 08:44:26 51°9.397 2°36.655 243.3 3.4 243 17.3
2004-03-04 08:44:30 51°9.396 2°36.649 243.9 3.4 244 17.3
2004-03-04 08:44:36 51°9.394 2°36.641 244.6 3.3 244 17.3
2004-03-04 08:44:42 51°9.392 2°36.633 245.2 3.4 247 17.3
2004-03-04 08:44:46 51°9.39 2°36.628 245.9 3.3 246 17.3
2004-03-04 08:44:51 51°9.388 2°36.621 246.5 3.3 248 17.3
2004-03-04 08:44:56 51°9.387 2°36.614 247.3 3.3 248 17.3
2004-03-04 08:45:02 51°9.385 2°36.606 247.7 3.3 249 17.3
2004-03-04 08:45:06 51°9.383 2°36.601 248.6 3.2 248 17.3
2004-03-04 08:45:12 51°9.381 2°36.593 249.1 3.3 249 17.3
2004-03-04 08:45:16 51°9.38 2°36.587 249.7 3.2 250 17.3
2004-03-04 08:45:22 51°9.378 2°36.579 250 3.3 250 17.3
2004-03-04 08:45:26 51°9.377 2°36.574 250.3 3.3 250 17.3
2004-03-04 08:45:32 51°9.375 2°36.565 250.4 3.3 251 17.3
2004-03-04 08:45:36 51°9.374 2°36.56 250.4 3.3 250 17.3
2004-03-04 08:45:40 51°9.373 2°36.554 250.4 3.4 251 17.3
2004-03-04 08:45:47 51°9.37 2°36.544 250.4 3.4 250 17.3
2004-03-04 08:45:51 51°9.369 2°36.538 250.1 3.5 251 17.3
2004-03-04 08:45:56 51°9.368 2°36.531 250 3.4 249 17.4
2004-03-04 08:46:02 51°9.366 2°36.522 249.9 3.5 250 17.3
2004-03-04 08:46:06 51°9.364 2°36.517 249.9 3.5 249 17.3
2004-03-04 08:46:10 51°9.363 2°36.511 250 3.5 249 17.3
2004-03-04 08:46:16 51°9.361 2°36.502 250.1 3.5 250 17.4
2004-03-04 08:46:20 51°9.36 2°36.496 250.2 3.5 251 17.4
2004-03-04 08:46:26 51°9.358 2°36.488 250.4 3.4 250 17.3
2004-03-04 08:46:31 51°9.356 2°36.481 250.4 3.4 251 17.3
2004-03-04 08:46:36 51°9.355 2°36.474 250.7 3.4 251 17.3
2004-03-04 08:46:42 51°9.353 2°36.465 250.7 3.4 251 17.3
2004-03-04 08:46:46 51°9.352 2°36.46 250.9 3.3 251 17.3
2004-03-04 08:46:50 51°9.351 2°36.454 251.1 3.3 252 17.4
2004-03-04 08:46:56 51°9.349 2°36.446 251.1 3.3 252 17.4
2004-03-04 08:47:02 51°9.347 2°36.438 251.1 3.3 251 17.4
2004-03-04 08:47:06 51°9.346 2°36.432 250.8 3.2 251 17.4
2004-03-04 08:47:10 51°9.345 2°36.427 250.4 3.3 250 17.4
2004-03-04 08:47:16 51°9.343 2°36.419 250.1 3.2 251 17.4
2004-03-04 08:47:22 51°9.341 2°36.411 249.7 3.2 250 17.3
2004-03-04 08:47:26 51°9.34 2°36.406 249.4 3.2 250 17.3
2004-03-04 08:47:31 51°9.339 2°36.399 248.9 3.2 249 17.3
2004-03-04 08:47:36 51°9.337 2°36.393 248.5 3.1 248 17.5
2004-03-04 08:47:40 51°9.336 2°36.388 248.2 3.1 248 17.5
2004-03-04 08:47:46 51°9.334 2°36.38 247.7 3.1 248 17.3
2004-03-04 08:47:51 51°9.332 2°36.374 247.4 3.1 247 17.4
2004-03-04 08:47:56 51°9.33 2°36.367 246.8 3.1 247 17.4
2004-03-04 08:48:02 51°9.328 2°36.36 246.7 3.1 246 17.4
2004-03-04 08:48:06 51°9.327 2°36.355 246.3 3.1 246 17.4
2004-03-04 08:48:11 51°9.325 2°36.349 245.9 3.1 246 17.3
2004-03-04 08:48:16 51°9.323 2°36.343 245.8 3.1 246 17.5
2004-03-04 08:48:22 51°9.321 2°36.335 245.7 3 245 17.5
2004-03-04 08:48:27 51°9.32 2°36.329 245.7 3 245 17.4
2004-03-04 08:48:30 51°9.319 2°36.325 245.7 3 245 17.4
2004-03-04 08:48:36 51°9.317 2°36.318 245.8 3 247 17.4
2004-03-04 08:48:42 51°9.315 2°36.311 246.1 3 246 17.4
2004-03-04 08:48:46 51°9.313 2°36.306 246.2 3 247 17.4
2004-03-04 08:48:50 51°9.312 2°36.302 246.4 3 247 17.4
2004-03-04 08:48:56 51°9.31 2°36.294 246.7 3 247 17.4
2004-03-04 08:49:02 51°9.308 2°36.287 246.7 3 248 17.4
2004-03-04 08:49:06 51°9.306 2°36.282 246.8 3 248 17.4
2004-03-04 08:49:11 51°9.305 2°36.276 246.9 3 247 17.4
2004-03-04 08:49:16 51°9.303 2°36.269 247 3 247 17.4
2004-03-04 08:49:22 51°9.301 2°36.262 247 3 247 17.4
2004-03-04 08:49:26 51°9.3 2°36.257 247.1 3 247 17.3
2004-03-04 08:49:31 51°9.298 2°36.251 247.2 3 248 17.4
2004-03-04 08:49:36 51°9.297 2°36.245 247.2 3 248 17.4
2004-03-04 08:49:42 51°9.295 2°36.237 247.4 3 248 17.5
2004-03-04 08:49:47 51°9.293 2°36.231 247.5 3 247 17.5
2004-03-04 08:49:52 51°9.292 2°36.225 247.5 3 249 17.4
2004-03-04 08:49:56 51°9.29 2°36.22 247.6 3 249 17.6
2004-03-04 08:50:02 51°9.289 2°36.213 247.8 3 247 17.4
2004-03-04 08:50:06 51°9.287 2°36.208 247.8 3 247 17.5
2004-03-04 08:50:11 51°9.286 2°36.202 247.5 3 248 17.5
2004-03-04 08:50:16 51°9.284 2°36.196 246.7 2.9 247 17.5
2004-03-04 08:50:22 51°9.282 2°36.189 246.1 2.9 247 17.5
2004-03-04 08:50:26 51°9.281 2°36.184 245.2 2.9 244 17.4
2004-03-04 08:50:30 51°9.279 2°36.18 244.4 2.9 245 17.4
2004-03-04 08:50:36 51°9.277 2°36.173 243.5 2.9 243 17.4
2004-03-04 08:50:42 51°9.275 2°36.166 242.5 2.9 243 17.5
2004-03-04 08:50:46 51°9.273 2°36.161 241.6 2.9 240 17.5
2004-03-04 08:50:52 51°9.271 2°36.155 240.7 2.9 241 17.4
2004-03-04 08:50:56 51°9.269 2°36.15 240 2.9 239 17.6
2004-03-04 08:51:00 51°9.268 2°36.146 239.6 2.9 241 17.5
2004-03-04 08:51:06 51°9.265 2°36.139 239.5 2.9 238 17.4
2004-03-04 08:51:12 51°9.263 2°36.132 239.5 2.9 241 17.5
2004-03-04 08:51:16 51°9.261 2°36.128 239.6 2.9 239 17.5
2004-03-04 08:51:22 51°9.259 2°36.121 239.8 2.9 241 17.5
2004-03-04 08:51:26 51°9.257 2°36.117 240.1 3 239 17.5
2004-03-04 08:51:31 51°9.255 2°36.111 240.3 3 240 17.5
2004-03-04 08:51:36 51°9.253 2°36.105 240.6 3 240 17.5
2004-03-04 08:51:42 51°9.251 2°36.099 240.9 3 241 17.5
2004-03-04 08:51:46 51°9.249 2°36.094 241.2 3 242 17.6
2004-03-04 08:51:50 51°9.247 2°36.09 241.6 3 241 17.6
2004-03-04 08:51:56 51°9.245 2°36.083 241.9 3 243 17.5
2004-03-04 08:52:02 51°9.243 2°36.076 242.3 2.9 241 17.5
2004-03-04 08:52:06 51°9.241 2°36.071 242.5 3 243 17.6